Time;durP1;ratioP1;P1;durP2;ratioP2;P2;SDS_P1;SDS_P2;PMS_P1;PMS_P2;Temp;Humidity;BMP_temperature;BMP_pressure;BME280_temperature;BME280_humidity;BME280_pressure;Samples;Min_cycle;Max_cycle;Signal;HPM_P1;HPM_P2
2023/03/06 00:01:07;;;;;;;18.48;10.77;;;;;;;;;;7367060;19;20272;-77
2023/03/06 00:03:32;;;;;;;16.80;10.43;;;;;;;;;;7371240;19;20395;-79
2023/03/06 00:05:58;;;;;;;18.98;10.38;;;;;;;;;;7360867;19;20014;-78
2023/03/06 00:08:24;;;;;;;19.90;11.38;;;;;;;;;;7369643;19;20493;-77
2023/03/06 00:10:49;;;;;;;19.27;10.73;;;;;;;;;;7361203;19;20002;-77
2023/03/06 00:13:15;;;;;;;19.75;11.82;;;;;;;;;;7366022;19;20017;-76
2023/03/06 00:15:41;;;;;;;24.90;10.73;;;;;;;;;;7370764;19;20006;-78
2023/03/06 00:18:06;;;;;;;22.58;11.20;;;;;;;;;;7361952;19;20078;-78
2023/03/06 00:20:32;;;;;;;19.60;10.75;;;;;;;;;;7369956;19;20014;-77
2023/03/06 00:22:57;;;;;;;19.30;11.40;;;;;;;;;;7368291;19;20127;-77
2023/03/06 00:25:23;;;;;;;20.75;11.35;;;;;;;;;;7363311;19;20095;-76
2023/03/06 00:27:48;;;;;;;16.65;10.43;;;;;;;;;;7366505;19;20444;-78
2023/03/06 00:30:15;;;;;;;19.23;10.93;;;;;;;;;;7368133;19;20022;-77
2023/03/06 00:32:41;;;;;;;20.30;12.45;;;;;;;;;;7365882;19;20006;-77
2023/03/06 00:35:06;;;;;;;23.00;12.25;;;;;;;;;;7362145;19;20482;-78
2023/03/06 00:37:31;;;;;;;19.75;12.05;;;;;;;;;;7371397;19;20011;-77
2023/03/06 00:39:56;;;;;;;23.17;12.40;;;;;;;;;;7367546;19;20103;-78
2023/03/06 00:42:22;;;;;;;19.52;11.30;;;;;;;;;;7365241;19;20015;-76
2023/03/06 00:44:47;;;;;;;22.23;13.00;;;;;;;;;;7363962;19;20122;-79
2023/03/06 00:47:15;;;;;;;21.05;12.27;;;;;;;;;;7368033;19;20035;-76
2023/03/06 00:49:41;;;;;;;22.52;13.55;;;;;;;;;;7365132;19;20040;-77
2023/03/06 00:52:06;;;;;;;20.85;12.48;;;;;;;;;;7366797;19;20058;-77
2023/03/06 00:54:31;;;;;;;21.57;12.83;;;;;;;;;;7370105;19;20011;-77
2023/03/06 00:56:56;;;;;;;23.35;12.45;;;;;;;;;;7362338;19;21844;-77
2023/03/06 00:59:21;;;;;;;20.33;12.10;;;;;;;;;;7366722;19;20146;-76
2023/03/06 01:01:46;;;;;;;22.13;13.35;;;;;;;;;;7364402;19;20277;-77
2023/03/06 01:04:12;;;;;;;24.23;12.73;;;;;;;;;;7368220;19;20562;-79
2023/03/06 01:06:37;;;;;;;20.90;11.75;;;;;;;;;;7366248;19;20387;-76
2023/03/06 01:09:03;;;;;;;23.88;12.70;;;;;;;;;;7366225;19;20127;-77
2023/03/06 01:11:28;;;;;;;22.85;12.68;;;;;;;;;;7338014;19;20063;-76
2023/03/06 01:13:53;;;;;;;22.67;13.10;;;;;;;;;;7368652;19;20033;-77
2023/03/06 01:16:20;;;;;;;20.73;12.80;;;;;;;;;;7364023;19;20026;-76
2023/03/06 01:18:45;;;;;;;21.80;12.80;;;;;;;;;;7361250;19;20413;-76
2023/03/06 01:21:10;;;;;;;24.30;12.60;;;;;;;;;;7369071;19;20383;-77
2023/03/06 01:23:36;;;;;;;25.23;13.95;;;;;;;;;;7369451;19;20006;-77
2023/03/06 01:26:01;;;;;;;25.05;14.02;;;;;;;;;;7357373;19;20002;-76
2023/03/06 01:28:27;;;;;;;21.92;12.52;;;;;;;;;;7368469;19;20017;-76
2023/03/06 01:30:52;;;;;;;21.27;12.52;;;;;;;;;;7362312;19;20011;-76
2023/03/06 01:33:17;;;;;;;23.88;12.27;;;;;;;;;;7367866;19;20140;-76
2023/03/06 01:35:42;;;;;;;21.70;12.68;;;;;;;;;;7356445;19;20014;-77
2023/03/06 01:38:08;;;;;;;23.25;13.18;;;;;;;;;;7366432;19;20368;-78
2023/03/06 01:40:34;;;;;;;22.00;13.15;;;;;;;;;;7360962;19;20002;-78
2023/03/06 01:43:07;;;;;;;22.40;13.35;;;;;;;;;;7363217;19;20037;-77
2023/03/06 01:45:32;;;;;;;21.90;13.00;;;;;;;;;;7366517;19;20002;-77
2023/03/06 01:47:57;;;;;;;21.85;12.85;;;;;;;;;;7365217;19;20006;-76
2023/03/06 01:50:23;;;;;;;19.90;11.52;;;;;;;;;;7367035;19;20419;-76
2023/03/06 01:52:50;;;;;;;21.48;11.85;;;;;;;;;;7357558;19;20018;-79
2023/03/06 01:55:18;;;;;;;21.95;12.52;;;;;;;;;;7359141;19;20030;-75
2023/03/06 01:57:45;;;;;;;20.38;12.07;;;;;;;;;;7364742;19;20030;-75
2023/03/06 02:00:12;;;;;;;22.35;13.20;;;;;;;;;;7366349;19;20027;-77
2023/03/06 02:02:39;;;;;;;21.67;13.23;;;;;;;;;;7365416;19;20483;-78
2023/03/06 02:05:05;;;;;;;22.48;12.55;;;;;;;;;;7360588;19;20018;-75
2023/03/06 02:07:30;;;;;;;21.00;12.35;;;;;;;;;;7368559;19;20014;-80
2023/03/06 02:09:55;;;;;;;23.80;12.85;;;;;;;;;;7326156;19;20007;-77
2023/03/06 02:12:21;;;;;;;22.23;13.38;;;;;;;;;;7250143;19;20006;-79
2023/03/06 02:14:46;;;;;;;20.17;12.00;;;;;;;;;;7266449;19;20031;-78
2023/03/06 02:17:12;;;;;;;24.40;13.82;;;;;;;;;;7265872;19;20500;-78
2023/03/06 02:19:49;;;;;;;25.25;13.60;;;;;;;;;;7265319;19;20018;-77
2023/03/06 02:22:14;;;;;;;25.80;13.15;;;;;;;;;;7270118;19;20794;-77
2023/03/06 02:24:44;;;;;;;24.63;13.15;;;;;;;;;;7269184;19;20368;-79
2023/03/06 02:27:11;;;;;;;29.10;15.13;;;;;;;;;;7262529;19;20561;-76
2023/03/06 02:29:36;;;;;;;24.50;14.23;;;;;;;;;;7256462;19;20098;-78
2023/03/06 02:32:02;;;;;;;27.92;16.15;;;;;;;;;;7269174;19;20600;-80
2023/03/06 02:34:27;;;;;;;33.80;16.23;;;;;;;;;;7271556;19;20536;-78
2023/03/06 02:37:03;;;;;;;31.77;16.85;;;;;;;;;;7275415;19;20015;-77
2023/03/06 02:39:32;;;;;;;30.85;16.75;;;;;;;;;;7275918;19;21100;-77
2023/03/06 02:41:57;;;;;;;31.08;16.33;;;;;;;;;;7275519;19;20019;-79
2023/03/06 02:44:23;;;;;;;34.67;16.75;;;;;;;;;;7274345;19;20844;-78
2023/03/06 02:46:48;;;;;;;31.20;17.27;;;;;;;;;;7272097;19;20046;-78
2023/03/06 02:49:13;;;;;;;34.00;18.30;;;;;;;;;;7275713;19;20100;-79
2023/03/06 02:51:38;;;;;;;34.08;18.17;;;;;;;;;;7270473;19;24700;-77
2023/03/06 02:54:03;;;;;;;40.35;20.27;;;;;;;;;;7272516;19;20678;-79
2023/03/06 02:56:29;;;;;;;38.03;19.55;;;;;;;;;;7270195;19;20149;-80
2023/03/06 02:58:54;;;;;;;41.60;19.05;;;;;;;;;;7275987;19;22028;-79
2023/03/06 03:01:19;;;;;;;40.78;19.98;;;;;;;;;;7277117;19;20056;-77
2023/03/06 03:03:44;;;;;;;39.08;20.33;;;;;;;;;;7272654;19;20047;-78
2023/03/06 03:06:09;;;;;;;43.60;20.58;;;;;;;;;;7268790;19;20024;-76
2023/03/06 03:08:35;;;;;;;38.25;20.17;;;;;;;;;;7269900;19;20039;-77
2023/03/06 03:11:01;;;;;;;41.58;21.77;;;;;;;;;;7340457;19;20010;-77
2023/03/06 03:13:26;;;;;;;40.70;20.50;;;;;;;;;;7371869;19;20489;-77
2023/03/06 03:16:01;;;;;;;41.73;21.30;;;;;;;;;;7371015;19;20371;-77
2023/03/06 03:18:26;;;;;;;40.70;21.02;;;;;;;;;;7376522;19;20296;-77
2023/03/06 03:20:52;;;;;;;42.88;20.67;;;;;;;;;;7371255;19;20011;-77
2023/03/06 03:23:17;;;;;;;40.67;21.63;;;;;;;;;;7377556;19;20030;-76
2023/03/06 03:25:42;;;;;;;46.08;21.88;;;;;;;;;;7362292;19;20014;-78
2023/03/06 03:28:07;;;;;;;49.28;22.65;;;;;;;;;;7371549;19;20539;-76
2023/03/06 03:30:32;;;;;;;42.28;21.55;;;;;;;;;;7374585;19;20007;-77
2023/03/06 03:32:58;;;;;;;39.63;20.38;;;;;;;;;;7373971;19;20480;-77
2023/03/06 03:35:23;;;;;;;40.67;21.05;;;;;;;;;;7371791;19;20006;-77
2023/03/06 03:37:48;;;;;;;46.63;22.38;;;;;;;;;;7376018;19;20474;-77
2023/03/06 03:40:13;;;;;;;40.25;20.48;;;;;;;;;;7367084;19;20031;-78
2023/03/06 03:42:38;;;;;;;41.22;19.98;;;;;;;;;;7371589;19;20280;-76
2023/03/06 03:45:04;;;;;;;42.28;21.63;;;;;;;;;;7367062;19;20078;-76
2023/03/06 03:47:29;;;;;;;42.72;21.00;;;;;;;;;;7370060;19;20451;-76
2023/03/06 03:49:54;;;;;;;41.67;20.63;;;;;;;;;;7366153;19;20027;-76
2023/03/06 03:52:19;;;;;;;42.90;19.70;;;;;;;;;;7369571;19;20027;-79
2023/03/06 03:54:44;;;;;;;43.22;21.50;;;;;;;;;;7366909;19;20282;-77
2023/03/06 03:57:10;;;;;;;44.33;21.75;;;;;;;;;;7369176;19;20007;-77
2023/03/06 03:59:35;;;;;;;42.75;20.73;;;;;;;;;;7369645;19;20034;-76
2023/03/06 04:02:03;;;;;;;44.28;20.60;;;;;;;;;;7355613;19;20015;-77
2023/03/06 04:04:28;;;;;;;42.75;20.65;;;;;;;;;;7374508;19;20032;-77
2023/03/06 04:06:53;;;;;;;41.72;20.35;;;;;;;;;;7369356;19;20020;-76
2023/03/06 04:09:18;;;;;;;38.78;19.15;;;;;;;;;;7369325;19;20440;-78
2023/03/06 04:11:44;;;;;;;42.58;20.33;;;;;;;;;;7374794;19;20018;-77
2023/03/06 04:14:09;;;;;;;40.33;19.40;;;;;;;;;;7373743;19;20374;-77
2023/03/06 04:16:34;;;;;;;37.35;19.58;;;;;;;;;;7377540;19;20089;-76
2023/03/06 04:18:59;;;;;;;35.70;18.63;;;;;;;;;;7370504;19;20017;-77
2023/03/06 04:21:24;;;;;;;46.92;20.45;;;;;;;;;;7362837;19;20007;-77
2023/03/06 04:23:49;;;;;;;37.85;18.35;;;;;;;;;;7374656;19;20271;-77
2023/03/06 04:26:15;;;;;;;39.08;20.58;;;;;;;;;;7350331;19;20110;-76
2023/03/06 04:28:40;;;;;;;40.65;20.15;;;;;;;;;;7369044;19;20387;-78
2023/03/06 04:31:05;;;;;;;40.90;19.63;;;;;;;;;;7368916;19;20017;-79
2023/03/06 04:33:30;;;;;;;35.33;19.05;;;;;;;;;;7372210;19;20039;-76
2023/03/06 04:35:55;;;;;;;45.00;19.40;;;;;;;;;;7365469;19;20019;-75
2023/03/06 04:38:21;;;;;;;42.25;19.48;;;;;;;;;;7367786;19;20002;-76
2023/03/06 04:40:48;;;;;;;41.83;19.73;;;;;;;;;;7363542;19;20315;-77
2023/03/06 04:43:13;;;;;;;41.15;20.48;;;;;;;;;;7368682;19;20275;-76
2023/03/06 04:45:38;;;;;;;39.97;19.63;;;;;;;;;;7364406;19;20021;-77
2023/03/06 04:48:04;;;;;;;40.45;19.55;;;;;;;;;;7347378;19;20044;-76
2023/03/06 04:50:31;;;;;;;39.72;20.02;;;;;;;;;;7367869;19;20063;-76
2023/03/06 04:52:57;;;;;;;38.75;19.98;;;;;;;;;;7365955;19;20007;-76
2023/03/06 04:55:22;;;;;;;40.65;21.27;;;;;;;;;;7354110;19;20090;-76
2023/03/06 04:57:48;;;;;;;38.45;19.20;;;;;;;;;;7367352;19;20331;-75
2023/03/06 05:00:15;;;;;;;41.67;19.20;;;;;;;;;;7363846;19;20069;-76
2023/03/06 05:02:41;;;;;;;39.03;19.00;;;;;;;;;;7361853;19;20010;-76
2023/03/06 05:05:06;;;;;;;37.35;18.70;;;;;;;;;;7358079;19;20014;-77
2023/03/06 05:07:31;;;;;;;41.97;21.13;;;;;;;;;;7365063;19;20078;-76
2023/03/06 05:09:56;;;;;;;41.40;20.50;;;;;;;;;;7362139;19;20034;-76
2023/03/06 05:12:22;;;;;;;44.35;21.15;;;;;;;;;;7366551;19;20756;-76
2023/03/06 05:14:47;;;;;;;41.92;20.83;;;;;;;;;;7362450;19;20017;-77
2023/03/06 05:17:12;;;;;;;46.85;21.77;;;;;;;;;;7359334;19;21197;-76
2023/03/06 05:19:37;;;;;;;45.10;20.63;;;;;;;;;;7362322;19;20032;-78
2023/03/06 05:22:02;;;;;;;45.78;21.17;;;;;;;;;;7359299;19;20014;-76
2023/03/06 05:24:27;;;;;;;42.55;20.55;;;;;;;;;;7351555;19;20381;-77
2023/03/06 05:26:53;;;;;;;43.65;21.13;;;;;;;;;;7360136;19;20007;-77
2023/03/06 05:29:18;;;;;;;44.97;22.17;;;;;;;;;;7358814;19;20023;-77
2023/03/06 05:31:43;;;;;;;45.85;22.02;;;;;;;;;;7366285;19;20014;-76
2023/03/06 05:34:11;;;;;;;46.50;22.38;;;;;;;;;;7362443;19;20026;-76
2023/03/06 05:36:36;;;;;;;48.28;22.00;;;;;;;;;;7366569;19;20010;-79
2023/03/06 05:39:02;;;;;;;42.80;21.77;;;;;;;;;;7356550;19;20953;-79
2023/03/06 05:41:27;;;;;;;45.08;21.60;;;;;;;;;;7356666;19;20331;-77
2023/03/06 05:43:52;;;;;;;43.58;22.02;;;;;;;;;;7357466;19;20169;-77
2023/03/06 05:46:17;;;;;;;46.97;21.50;;;;;;;;;;7365626;19;20275;-76
2023/03/06 05:48:42;;;;;;;45.17;22.33;;;;;;;;;;7360537;19;20011;-76
2023/03/06 05:51:08;;;;;;;47.00;23.23;;;;;;;;;;7359787;19;20263;-77
2023/03/06 05:53:33;;;;;;;45.28;22.83;;;;;;;;;;7358541;19;20474;-77
2023/03/06 05:56:00;;;;;;;48.93;23.37;;;;;;;;;;7347384;19;20014;-77
2023/03/06 05:58:26;;;;;;;47.10;23.25;;;;;;;;;;7367520;19;20267;-76
2023/03/06 06:00:52;;;;;;;49.88;24.23;;;;;;;;;;7359967;19;20379;-79
2023/03/06 06:03:18;;;;;;;52.88;25.02;;;;;;;;;;7362732;19;20010;-77
2023/03/06 06:05:43;;;;;;;46.75;23.80;;;;;;;;;;7366392;19;20109;-77
2023/03/06 06:08:08;;;;;;;54.70;26.30;;;;;;;;;;7364329;19;20002;-77
2023/03/06 06:10:33;;;;;;;47.88;25.02;;;;;;;;;;7362677;19;20524;-76
2023/03/06 06:12:58;;;;;;;46.83;23.98;;;;;;;;;;7355391;19;20011;-78
2023/03/06 06:15:26;;;;;;;49.53;23.57;;;;;;;;;;7366584;19;20771;-77
2023/03/06 06:17:51;;;;;;;51.33;24.73;;;;;;;;;;7369262;19;20255;-76
2023/03/06 06:20:17;;;;;;;53.37;25.53;;;;;;;;;;7364121;19;20010;-78
2023/03/06 06:22:42;;;;;;;60.13;27.92;;;;;;;;;;7358673;19;20267;-76
2023/03/06 06:25:07;;;;;;;55.78;25.90;;;;;;;;;;7352732;19;20034;-76
2023/03/06 06:27:33;;;;;;;58.63;27.65;;;;;;;;;;7362452;19;20282;-76
2023/03/06 06:29:58;;;;;;;65.47;28.67;;;;;;;;;;7357932;19;20677;-77
2023/03/06 06:32:23;;;;;;;57.57;26.67;;;;;;;;;;7363496;19;20395;-77
2023/03/06 06:34:48;;;;;;;60.88;27.77;;;;;;;;;;7367916;19;20251;-77
2023/03/06 06:37:13;;;;;;;53.90;26.03;;;;;;;;;;7362913;19;20456;-78
2023/03/06 06:39:39;;;;;;;64.68;29.75;;;;;;;;;;7347720;19;20438;-78
2023/03/06 06:42:04;;;;;;;68.72;29.58;;;;;;;;;;7365636;19;20428;-77
2023/03/06 06:44:29;;;;;;;60.90;27.73;;;;;;;;;;7370396;19;20455;-76
2023/03/06 06:46:54;;;;;;;66.80;31.08;;;;;;;;;;7358826;19;21844;-77
2023/03/06 06:49:19;;;;;;;57.88;27.83;;;;;;;;;;7353840;19;20129;-80
2023/03/06 06:51:45;;;;;;;58.40;27.97;;;;;;;;;;7349410;19;20007;-78
2023/03/06 06:54:10;;;;;;;64.93;29.40;;;;;;;;;;7356580;19;20391;-79
2023/03/06 06:56:35;;;;;;;59.60;29.05;;;;;;;;;;7359135;19;20469;-77
2023/03/06 06:59:00;;;;;;;65.03;29.50;;;;;;;;;;7370404;19;20006;-78
2023/03/06 07:01:26;;;;;;;63.40;29.40;;;;;;;;;;7369678;19;20106;-80
2023/03/06 07:03:51;;;;;;;64.10;29.38;;;;;;;;;;7367693;19;20327;-78
2023/03/06 07:06:16;;;;;;;68.40;31.13;;;;;;;;;;7366529;19;20073;-78
2023/03/06 07:08:42;;;;;;;66.55;32.13;;;;;;;;;;7372693;19;20719;-77
2023/03/06 07:11:08;;;;;;;63.63;31.60;;;;;;;;;;7365046;19;20030;-78
2023/03/06 07:13:34;;;;;;;64.13;32.03;;;;;;;;;;7372095;19;20259;-77
2023/03/06 07:15:59;;;;;;;67.50;32.22;;;;;;;;;;7372689;19;20049;-79
2023/03/06 07:18:24;;;;;;;67.05;31.42;;;;;;;;;;7376320;19;20018;-79
2023/03/06 07:20:51;;;;;;;68.93;31.35;;;;;;;;;;7379743;19;20052;-77
2023/03/06 07:23:17;;;;;;;70.10;33.33;;;;;;;;;;7375191;19;20034;-78
2023/03/06 07:25:42;;;;;;;71.15;31.67;;;;;;;;;;7371430;19;20003;-78
2023/03/06 07:28:07;;;;;;;71.05;32.13;;;;;;;;;;7375252;19;20015;-79
2023/03/06 07:30:32;;;;;;;69.72;32.55;;;;;;;;;;7351404;19;21087;-77
2023/03/06 07:32:58;;;;;;;71.70;32.53;;;;;;;;;;7371673;19;20434;-78
2023/03/06 07:35:23;;;;;;;65.75;32.22;;;;;;;;;;7359933;19;20047;-79
2023/03/06 07:37:50;;;;;;;65.13;31.25;;;;;;;;;;7370129;19;20002;-82
2023/03/06 07:40:15;;;;;;;68.00;31.58;;;;;;;;;;7358481;19;20077;-83
2023/03/06 07:42:40;;;;;;;67.95;32.20;;;;;;;;;;7370155;19;20491;-80
2023/03/06 07:45:07;;;;;;;72.07;34.38;;;;;;;;;;7374531;19;20696;-79
2023/03/06 07:47:32;;;;;;;69.13;32.40;;;;;;;;;;7374853;19;20011;-79
2023/03/06 07:50:01;;;;;;;71.10;32.42;;;;;;;;;;7374508;19;20440;-81
2023/03/06 07:52:27;;;;;;;74.57;32.85;;;;;;;;;;7378798;19;20127;-80
2023/03/06 07:54:52;;;;;;;69.80;32.40;;;;;;;;;;7368972;19;20947;-80
2023/03/06 07:57:17;;;;;;;67.30;30.23;;;;;;;;;;7368364;19;20041;-81
2023/03/06 07:59:42;;;;;;;66.53;30.97;;;;;;;;;;7375713;19;20266;-79
2023/03/06 08:02:09;;;;;;;69.18;32.63;;;;;;;;;;7372457;19;20304;-82
2023/03/06 08:04:34;;;;;;;71.13;33.30;;;;;;;;;;7362072;19;20422;-79
2023/03/06 08:06:59;;;;;;;68.57;31.97;;;;;;;;;;7373031;19;20438;-79
2023/03/06 08:09:25;;;;;;;68.10;34.00;;;;;;;;;;7370154;19;20279;-79
2023/03/06 08:11:50;;;;;;;69.72;29.90;;;;;;;;;;7375034;19;20014;-79
2023/03/06 08:14:15;;;;;;;71.40;34.63;;;;;;;;;;7370829;19;20006;-81
2023/03/06 08:16:40;;;;;;;67.43;33.23;;;;;;;;;;7376175;19;20010;-79
2023/03/06 08:19:05;;;;;;;64.40;31.00;;;;;;;;;;7369606;19;21329;-84
2023/03/06 08:21:30;;;;;;;63.83;30.83;;;;;;;;;;7371138;19;20280;-81
2023/03/06 08:23:56;;;;;;;66.32;31.52;;;;;;;;;;7376866;19;20007;-79
2023/03/06 08:26:22;;;;;;;60.60;30.38;;;;;;;;;;7370222;19;20170;-80
2023/03/06 08:28:47;;;;;;;66.47;30.38;;;;;;;;;;7369974;19;20027;-80
2023/03/06 08:31:18;;;;;;;60.17;29.80;;;;;;;;;;7372951;19;20543;-79
2023/03/06 08:33:43;;;;;;;59.58;29.65;;;;;;;;;;7375692;19;20006;-80
2023/03/06 08:36:09;;;;;;;62.73;29.80;;;;;;;;;;7362227;19;20035;-79
2023/03/06 08:38:34;;;;;;;56.10;28.45;;;;;;;;;;7375094;19;20278;-79
2023/03/06 08:40:59;;;;;;;62.10;29.88;;;;;;;;;;7371361;19;20019;-81
2023/03/06 08:43:24;;;;;;;64.88;30.83;;;;;;;;;;7375273;19;20010;-80
2023/03/06 08:45:50;;;;;;;59.00;29.67;;;;;;;;;;7374360;19;20015;-79
2023/03/06 08:48:16;;;;;;;60.17;30.60;;;;;;;;;;7361053;19;20083;-81
2023/03/06 08:50:41;;;;;;;61.33;29.93;;;;;;;;;;7368945;19;20154;-80
2023/03/06 08:53:06;;;;;;;57.13;27.95;;;;;;;;;;7373215;19;20395;-82
2023/03/06 08:55:34;;;;;;;56.40;28.00;;;;;;;;;;7372952;19;20382;-80
2023/03/06 08:58:00;;;;;;;53.58;28.60;;;;;;;;;;7376587;19;20014;-84
2023/03/06 09:00:26;;;;;;;61.65;29.23;;;;;;;;;;7374911;19;20271;-81
2023/03/06 09:02:51;;;;;;;52.83;26.75;;;;;;;;;;7371819;19;20043;-80
2023/03/06 09:05:16;;;;;;;53.88;27.13;;;;;;;;;;7356657;19;20027;-80
2023/03/06 09:07:41;;;;;;;56.53;28.13;;;;;;;;;;7376257;19;20015;-79
2023/03/06 09:10:12;;;;;;;56.80;26.35;;;;;;;;;;7371875;19;19999;-80
2023/03/06 09:12:37;;;;;;;57.28;29.20;;;;;;;;;;7378616;19;20595;-82
2023/03/06 09:15:03;;;;;;;52.37;26.10;;;;;;;;;;7377127;19;20198;-80
2023/03/06 09:17:28;;;;;;;53.55;26.38;;;;;;;;;;7376416;19;20755;-81
2023/03/06 09:19:53;;;;;;;48.45;25.30;;;;;;;;;;7376041;19;20010;-80
2023/03/06 09:22:19;;;;;;;50.38;25.50;;;;;;;;;;7374269;19;20412;-80
2023/03/06 09:24:44;;;;;;;52.22;24.83;;;;;;;;;;7374918;19;20078;-79
2023/03/06 09:27:09;;;;;;;47.10;24.92;;;;;;;;;;7376410;19;20014;-80
2023/03/06 09:29:34;;;;;;;45.70;24.45;;;;;;;;;;7375697;19;20300;-81
2023/03/06 09:31:59;;;;;;;45.37;24.03;;;;;;;;;;7374788;19;20082;-79
2023/03/06 09:34:26;;;;;;;48.90;25.27;;;;;;;;;;7374551;19;21203;-82
2023/03/06 09:36:51;;;;;;;48.90;23.55;;;;;;;;;;7376912;19;20548;-79
2023/03/06 09:39:16;;;;;;;42.80;23.00;;;;;;;;;;7370346;19;20018;-81
2023/03/06 09:41:42;;;;;;;48.87;23.20;;;;;;;;;;7376032;19;20558;-79
2023/03/06 09:44:18;;;;;;;43.03;21.65;;;;;;;;;;7376620;19;20275;-80
2023/03/06 09:46:56;;;;;;;48.65;22.90;;;;;;;;;;7373998;19;20159;-81
2023/03/06 09:49:45;;;;;;;44.78;22.35;;;;;;;;;;7371752;19;20017;-80
2023/03/06 09:52:29;;;;;;;45.42;23.10;;;;;;;;;;7373817;19;20018;-83
2023/03/06 09:54:57;;;;;;;43.80;21.77;;;;;;;;;;7375366;19;20014;-81
2023/03/06 09:57:35;;;;;;;42.20;21.45;;;;;;;;;;7374268;19;20412;-81
2023/03/06 10:00:05;;;;;;;43.45;21.10;;;;;;;;;;7373196;19;20542;-83
2023/03/06 10:02:44;;;;;;;40.53;20.08;;;;;;;;;;7374132;19;20007;-81
2023/03/06 10:05:32;;;;;;;34.67;17.73;;;;;;;;;;7370639;19;20011;-81
2023/03/06 10:08:02;;;;;;;38.20;17.83;;;;;;;;;;7377788;19;20101;-80
2023/03/06 10:10:48;;;;;;;30.42;15.80;;;;;;;;;;7371439;19;20037;-81
2023/03/06 10:13:16;;;;;;;31.02;16.35;;;;;;;;;;7371598;19;20024;-82
2023/03/06 10:15:43;;;;;;;31.95;15.73;;;;;;;;;;7377297;19;20018;-79
2023/03/06 10:18:09;;;;;;;29.48;14.90;;;;;;;;;;7372930;19;20014;-81
2023/03/06 10:20:46;;;;;;;27.75;14.90;;;;;;;;;;7373975;19;20393;-79
2023/03/06 10:23:11;;;;;;;29.67;14.98;;;;;;;;;;7372521;19;20490;-80
2023/03/06 10:25:55;;;;;;;36.30;16.88;;;;;;;;;;7361018;19;20785;-80
2023/03/06 10:28:27;;;;;;;33.30;15.80;;;;;;;;;;7370398;19;20431;-80
2023/03/06 10:31:02;;;;;;;29.80;14.80;;;;;;;;;;7371457;19;20032;-80
2023/03/06 10:33:36;;;;;;;28.23;14.25;;;;;;;;;;7371594;19;20055;-80
2023/03/06 10:36:02;;;;;;;26.42;13.98;;;;;;;;;;7370355;19;20055;-80
2023/03/06 10:38:30;;;;;;;30.02;14.85;;;;;;;;;;7370038;19;20010;-80
2023/03/06 10:41:27;;;;;;;32.55;15.80;;;;;;;;;;7371842;19;20010;-79
2023/03/06 10:43:58;;;;;;;31.77;14.65;;;;;;;;;;7368335;19;20427;-80
2023/03/06 10:46:31;;;;;;;30.85;14.98;;;;;;;;;;7351397;19;20027;-80
2023/03/06 10:48:57;;;;;;;28.85;14.25;;;;;;;;;;7372442;19;20035;-79
2023/03/06 10:51:23;;;;;;;31.98;15.35;;;;;;;;;;7370458;19;20282;-81
2023/03/06 10:53:50;;;;;;;29.92;15.20;;;;;;;;;;7372366;19;20404;-80
2023/03/06 10:56:24;;;;;;;32.30;15.10;;;;;;;;;;7374434;19;20010;-79
2023/03/06 10:59:03;;;;;;;37.13;16.60;;;;;;;;;;7382302;19;20038;-79
2023/03/06 11:01:29;;;;;;;27.80;13.98;;;;;;;;;;7376939;19;20025;-84
2023/03/06 11:04:12;;;;;;;28.85;14.90;;;;;;;;;;7380851;19;20010;-81
2023/03/06 11:06:38;;;;;;;36.80;16.27;;;;;;;;;;7377379;19;20085;-79
2023/03/06 11:09:23;;;;;;;35.38;17.58;;;;;;;;;;7378459;19;20379;-80
2023/03/06 11:11:51;;;;;;;29.77;14.93;;;;;;;;;;7371531;19;20050;-83
2023/03/06 11:14:18;;;;;;;31.23;15.48;;;;;;;;;;7377069;19;20010;-80
2023/03/06 11:16:53;;;;;;;30.60;14.57;;;;;;;;;;7378747;19;20007;-80
2023/03/06 11:19:18;;;;;;;27.83;14.38;;;;;;;;;;7376085;19;20038;-79
2023/03/06 11:21:57;;;;;;;28.20;14.35;;;;;;;;;;7374205;19;20712;-80
2023/03/06 11:24:22;;;;;;;26.52;14.43;;;;;;;;;;7374067;19;20685;-79
2023/03/06 11:26:51;;;;;;;28.40;13.77;;;;;;;;;;7367670;19;20379;-80
2023/03/06 11:29:28;;;;;;;27.77;13.95;;;;;;;;;;7373320;19;20006;-82
2023/03/06 11:32:09;;;;;;;26.70;14.20;;;;;;;;;;7378344;19;20033;-81
2023/03/06 11:34:40;;;;;;;29.65;14.60;;;;;;;;;;7370714;19;20059;-82
2023/03/06 11:37:07;;;;;;;24.83;13.35;;;;;;;;;;7377071;19;20040;-81
2023/03/06 11:39:40;;;;;;;26.77;13.93;;;;;;;;;;7373462;19;20086;-79
2023/03/06 11:42:18;;;;;;;28.27;13.27;;;;;;;;;;7376808;19;20038;-79
2023/03/06 11:45:02;;;;;;;23.65;12.35;;;;;;;;;;7376747;19;20014;-81
2023/03/06 11:47:31;;;;;;;22.52;10.95;;;;;;;;;;7376155;19;21419;-82
2023/03/06 11:50:08;;;;;;;23.60;11.98;;;;;;;;;;7364053;19;20014;-79
2023/03/06 11:52:36;;;;;;;23.90;12.52;;;;;;;;;;7378751;19;20029;-79
2023/03/06 11:55:02;;;;;;;23.50;12.45;;;;;;;;;;7377806;19;20015;-80
2023/03/06 11:57:37;;;;;;;26.48;12.95;;;;;;;;;;7372209;19;20017;-83
2023/03/06 12:00:15;;;;;;;24.38;11.55;;;;;;;;;;7379772;19;20010;-80
2023/03/06 12:02:59;;;;;;;22.02;11.88;;;;;;;;;;7373592;19;20019;-79
2023/03/06 12:05:33;;;;;;;26.73;11.98;;;;;;;;;;7358783;19;20030;-79
2023/03/06 12:08:11;;;;;;;25.27;11.93;;;;;;;;;;7356269;19;20018;-81
2023/03/06 12:10:42;;;;;;;27.52;12.68;;;;;;;;;;7366983;19;20022;-81
2023/03/06 12:13:13;;;;;;;24.10;12.10;;;;;;;;;;7377287;19;20022;-79
2023/03/06 12:15:59;;;;;;;22.98;11.90;;;;;;;;;;7376052;19;20165;-79
2023/03/06 12:18:35;;;;;;;25.80;13.13;;;;;;;;;;7368254;19;20352;-81
2023/03/06 12:21:04;;;;;;;22.95;10.90;;;;;;;;;;7362818;19;20164;-81
2023/03/06 12:23:43;;;;;;;26.30;12.30;;;;;;;;;;7355996;19;20780;-80
2023/03/06 12:26:08;;;;;;;26.77;11.82;;;;;;;;;;7369634;19;20014;-80
2023/03/06 12:28:50;;;;;;;25.02;12.18;;;;;;;;;;7372914;19;19998;-78
2023/03/06 12:31:33;;;;;;;25.35;12.80;;;;;;;;;;7371081;19;20030;-82
2023/03/06 12:34:12;;;;;;;30.10;13.27;;;;;;;;;;7366835;19;20330;-80
2023/03/06 12:36:54;;;;;;;21.38;11.35;;;;;;;;;;7372316;19;20018;-79
2023/03/06 12:39:22;;;;;;;23.63;11.73;;;;;;;;;;7367721;19;20082;-81
2023/03/06 12:41:48;;;;;;;23.65;12.48;;;;;;;;;;7370004;19;20006;-82
2023/03/06 12:44:19;;;;;;;23.63;11.90;;;;;;;;;;7371834;19;20621;-79
2023/03/06 12:46:48;;;;;;;25.35;11.90;;;;;;;;;;7381062;19;20247;-79
2023/03/06 12:49:22;;;;;;;21.42;11.18;;;;;;;;;;7369680;19;20023;-79
2023/03/06 12:51:47;;;;;;;25.92;11.30;;;;;;;;;;7375104;19;20054;-79
2023/03/06 12:54:13;;;;;;;24.48;12.25;;;;;;;;;;7363359;19;20027;-79
2023/03/06 12:56:38;;;;;;;23.80;11.55;;;;;;;;;;7372504;19;20010;-80
2023/03/06 12:59:04;;;;;;;24.40;11.98;;;;;;;;;;7364908;19;20104;-79
2023/03/06 13:01:42;;;;;;;24.65;11.85;;;;;;;;;;7361149;19;20018;-82
2023/03/06 13:04:26;;;;;;;24.40;12.27;;;;;;;;;;7364273;19;20712;-81
2023/03/06 13:07:08;;;;;;;24.92;12.32;;;;;;;;;;7371831;19;20006;-82
2023/03/06 13:09:51;;;;;;;22.20;11.55;;;;;;;;;;7364757;19;20040;-82
2023/03/06 13:12:16;;;;;;;20.35;10.70;;;;;;;;;;7374506;19;20025;-80
2023/03/06 13:14:43;;;;;;;22.70;10.85;;;;;;;;;;7371755;19;19999;-80
2023/03/06 13:17:27;;;;;;;23.55;12.15;;;;;;;;;;7371015;19;20014;-80
2023/03/06 13:19:52;;;;;;;;;;;;;;;;;;7376595;19;20094;-79
2023/03/06 13:22:27;;;;;;;21.85;10.70;;;;;;;;;;7371598;19;19944;-80
2023/03/06 13:25:11;;;;;;;26.15;12.02;;;;;;;;;;7372913;19;20331;-79
2023/03/06 13:27:54;;;;;;;21.73;10.90;;;;;;;;;;7369634;19;20043;-80
2023/03/06 13:30:21;;;;;;;20.65;10.50;;;;;;;;;;7365632;19;20464;-82
2023/03/06 13:32:47;;;;;;;24.88;12.25;;;;;;;;;;7371319;19;20455;-80
2023/03/06 13:35:31;;;;;;;20.60;11.45;;;;;;;;;;7372898;19;20459;-83
2023/03/06 13:37:57;;;;;;;18.92;10.65;;;;;;;;;;7368120;19;20015;-79
2023/03/06 13:40:40;;;;;;;21.83;10.90;;;;;;;;;;7368359;19;20086;-81
2023/03/06 13:43:05;;;;;;;20.80;10.50;;;;;;;;;;7370752;19;20014;-80
2023/03/06 13:45:43;;;;;;;18.33;10.18;;;;;;;;;;7370938;19;20035;-80
2023/03/06 13:48:22;;;;;;;21.77;10.73;;;;;;;;;;7372509;19;20767;-79
2023/03/06 13:50:48;;;;;;;19.52;10.50;;;;;;;;;;7369793;19;20078;-80
2023/03/06 13:53:28;;;;;;;18.17;9.25;;;;;;;;;;7369568;19;20129;-79
2023/03/06 13:56:12;;;;;;;22.73;10.02;;;;;;;;;;7360411;19;20041;-84
2023/03/06 13:58:56;;;;;;;17.42;9.30;;;;;;;;;;7372266;19;20066;-77
2023/03/06 14:01:25;;;;;;;26.45;11.48;;;;;;;;;;7371854;19;20345;-80
2023/03/06 14:03:57;;;;;;;22.65;10.35;;;;;;;;;;7374415;19;20428;-81
2023/03/06 14:06:34;;;;;;;18.27;10.18;;;;;;;;;;7364982;19;20024;-78
2023/03/06 14:09:07;;;;;;;19.23;9.63;;;;;;;;;;7376005;19;20028;-77
2023/03/06 14:11:33;;;;;;;20.67;10.30;;;;;;;;;;7373178;19;20451;-76
2023/03/06 14:13:58;;;;;;;20.75;10.55;;;;;;;;;;7375638;19;20130;-77
2023/03/06 14:16:25;;;;;;;20.83;9.95;;;;;;;;;;7373310;19;20007;-79
2023/03/06 14:18:51;;;;;;;19.33;10.05;;;;;;;;;;7374718;19;20092;-77
2023/03/06 14:21:26;;;;;;;21.55;10.55;;;;;;;;;;7370984;19;20129;-75
2023/03/06 14:23:58;;;;;;;21.98;10.57;;;;;;;;;;7373653;19;20433;-78